sensor_id;sensor_type;location;lat;lon;timestamp;P1;durP1;ratioP1;P2;durP2;ratioP2
12784;SDS011;6456;42.680;23.260;2022-12-16T00:00:27;103.00;;;59.13;;
12784;SDS011;6456;42.680;23.260;2022-12-16T00:02:54;112.30;;;65.37;;
12784;SDS011;6456;42.680;23.260;2022-12-16T00:05:24;120.17;;;74.03;;
12784;SDS011;6456;42.680;23.260;2022-12-16T00:07:51;127.47;;;81.03;;
12784;SDS011;6456;42.680;23.260;2022-12-16T00:10:20;132.23;;;84.80;;
12784;SDS011;6456;42.680;23.260;2022-12-16T00:12:50;139.13;;;85.83;;
12784;SDS011;6456;42.680;23.260;2022-12-16T00:15:16;133.40;;;83.93;;
12784;SDS011;6456;42.680;23.260;2022-12-16T00:17:43;124.20;;;77.43;;
12784;SDS011;6456;42.680;23.260;2022-12-16T00:20:11;129.93;;;83.77;;
12784;SDS011;6456;42.680;23.260;2022-12-16T00:22:38;122.50;;;78.53;;
12784;SDS011;6456;42.680;23.260;2022-12-16T00:25:05;118.43;;;75.73;;
12784;SDS011;6456;42.680;23.260;2022-12-16T00:27:34;120.67;;;75.73;;
12784;SDS011;6456;42.680;23.260;2022-12-16T00:30:01;136.07;;;83.63;;
12784;SDS011;6456;42.680;23.260;2022-12-16T00:32:28;130.67;;;81.70;;
12784;SDS011;6456;42.680;23.260;2022-12-16T00:34:55;141.93;;;84.43;;
12784;SDS011;6456;42.680;23.260;2022-12-16T00:37:23;144.70;;;81.87;;
12784;SDS011;6456;42.680;23.260;2022-12-16T00:39:51;148.93;;;82.70;;
12784;SDS011;6456;42.680;23.260;2022-12-16T00:42:18;138.23;;;81.67;;
12784;SDS011;6456;42.680;23.260;2022-12-16T00:44:46;140.83;;;82.40;;
12784;SDS011;6456;42.680;23.260;2022-12-16T00:47:13;165.83;;;91.10;;
12784;SDS011;6456;42.680;23.260;2022-12-16T00:49:40;138.33;;;82.20;;
12784;SDS011;6456;42.680;23.260;2022-12-16T00:52:07;152.30;;;82.37;;
12784;SDS011;6456;42.680;23.260;2022-12-16T00:54:34;159.73;;;86.00;;
12784;SDS011;6456;42.680;23.260;2022-12-16T00:57:01;138.73;;;82.13;;
12784;SDS011;6456;42.680;23.260;2022-12-16T00:59:28;161.87;;;82.57;;
12784;SDS011;6456;42.680;23.260;2022-12-16T01:01:56;182.10;;;88.77;;
12784;SDS011;6456;42.680;23.260;2022-12-16T01:04:23;178.20;;;88.77;;
12784;SDS011;6456;42.680;23.260;2022-12-16T01:06:51;218.67;;;90.93;;
12784;SDS011;6456;42.680;23.260;2022-12-16T01:09:18;164.60;;;85.70;;
12784;SDS011;6456;42.680;23.260;2022-12-16T01:11:45;208.43;;;96.80;;
12784;SDS011;6456;42.680;23.260;2022-12-16T01:14:12;163.13;;;88.83;;
12784;SDS011;6456;42.680;23.260;2022-12-16T01:16:39;171.70;;;90.27;;
12784;SDS011;6456;42.680;23.260;2022-12-16T01:19:07;194.90;;;90.97;;
12784;SDS011;6456;42.680;23.260;2022-12-16T01:21:35;171.60;;;77.30;;
12784;SDS011;6456;42.680;23.260;2022-12-16T01:24:02;187.50;;;70.70;;
12784;SDS011;6456;42.680;23.260;2022-12-16T01:26:29;148.77;;;63.97;;
12784;SDS011;6456;42.680;23.260;2022-12-16T01:28:56;151.80;;;54.77;;
12784;SDS011;6456;42.680;23.260;2022-12-16T01:31:24;131.97;;;57.20;;
12784;SDS011;6456;42.680;23.260;2022-12-16T01:33:51;127.17;;;57.80;;
12784;SDS011;6456;42.680;23.260;2022-12-16T01:36:19;114.60;;;50.63;;
12784;SDS011;6456;42.680;23.260;2022-12-16T01:38:46;244.57;;;56.43;;
12784;SDS011;6456;42.680;23.260;2022-12-16T01:41:14;144.03;;;49.97;;
12784;SDS011;6456;42.680;23.260;2022-12-16T01:43:42;142.47;;;51.70;;
12784;SDS011;6456;42.680;23.260;2022-12-16T01:46:12;126.27;;;46.80;;
12784;SDS011;6456;42.680;23.260;2022-12-16T01:48:45;146.07;;;46.77;;
12784;SDS011;6456;42.680;23.260;2022-12-16T01:51:17;102.27;;;44.33;;
12784;SDS011;6456;42.680;23.260;2022-12-16T01:53:51;73.67;;;41.80;;
12784;SDS011;6456;42.680;23.260;2022-12-16T01:56:22;79.43;;;41.03;;
12784;SDS011;6456;42.680;23.260;2022-12-16T01:58:52;76.97;;;41.17;;
12784;SDS011;6456;42.680;23.260;2022-12-16T02:01:21;84.60;;;39.93;;
12784;SDS011;6456;42.680;23.260;2022-12-16T02:03:48;77.63;;;35.37;;
12784;SDS011;6456;42.680;23.260;2022-12-16T02:06:18;43.73;;;28.57;;
12784;SDS011;6456;42.680;23.260;2022-12-16T02:08:46;57.63;;;33.50;;
12784;SDS011;6456;42.680;23.260;2022-12-16T02:11:25;63.00;;;31.10;;
12784;SDS011;6456;42.680;23.260;2022-12-16T02:14:19;52.77;;;31.77;;
12784;SDS011;6456;42.680;23.260;2022-12-16T02:16:58;53.07;;;32.90;;
12784;SDS011;6456;42.680;23.260;2022-12-16T02:19:53;47.60;;;30.03;;
12784;SDS011;6456;42.680;23.260;2022-12-16T02:22:36;52.93;;;30.60;;
12784;SDS011;6456;42.680;23.260;2022-12-16T02:25:26;67.00;;;33.03;;
12784;SDS011;6456;42.680;23.260;2022-12-16T02:28:07;48.70;;;30.73;;
12784;SDS011;6456;42.680;23.260;2022-12-16T02:30:40;50.57;;;30.87;;
12784;SDS011;6456;42.680;23.260;2022-12-16T02:33:23;45.63;;;29.73;;
12784;SDS011;6456;42.680;23.260;2022-12-16T02:36:10;43.17;;;27.60;;
12784;SDS011;6456;42.680;23.260;2022-12-16T02:38:44;44.70;;;26.63;;
12784;SDS011;6456;42.680;23.260;2022-12-16T02:41:16;42.57;;;25.97;;
12784;SDS011;6456;42.680;23.260;2022-12-16T02:43:50;38.63;;;25.97;;
12784;SDS011;6456;42.680;23.260;2022-12-16T02:46:22;39.27;;;26.23;;
12784;SDS011;6456;42.680;23.260;2022-12-16T02:48:52;34.73;;;24.03;;
12784;SDS011;6456;42.680;23.260;2022-12-16T02:51:20;34.50;;;22.93;;
12784;SDS011;6456;42.680;23.260;2022-12-16T02:53:51;36.80;;;23.63;;
12784;SDS011;6456;42.680;23.260;2022-12-16T02:56:29;36.27;;;24.10;;
12784;SDS011;6456;42.680;23.260;2022-12-16T02:59:07;45.87;;;28.47;;
12784;SDS011;6456;42.680;23.260;2022-12-16T03:01:45;41.70;;;26.60;;
12784;SDS011;6456;42.680;23.260;2022-12-16T03:04:18;39.47;;;25.07;;
12784;SDS011;6456;42.680;23.260;2022-12-16T03:06:51;42.57;;;26.47;;
12784;SDS011;6456;42.680;23.260;2022-12-16T03:09:23;39.07;;;25.50;;
12784;SDS011;6456;42.680;23.260;2022-12-16T03:11:53;39.97;;;25.70;;
12784;SDS011;6456;42.680;23.260;2022-12-16T03:14:24;35.73;;;24.47;;
12784;SDS011;6456;42.680;23.260;2022-12-16T03:16:56;42.57;;;27.37;;
12784;SDS011;6456;42.680;23.260;2022-12-16T03:19:24;39.10;;;26.30;;
12784;SDS011;6456;42.680;23.260;2022-12-16T03:21:54;38.57;;;26.43;;
12784;SDS011;6456;42.680;23.260;2022-12-16T03:24:26;45.13;;;29.60;;
12784;SDS011;6456;42.680;23.260;2022-12-16T03:26:55;46.10;;;29.10;;
12784;SDS011;6456;42.680;23.260;2022-12-16T03:29:34;45.27;;;28.13;;
12784;SDS011;6456;42.680;23.260;2022-12-16T03:32:10;40.20;;;26.93;;
12784;SDS011;6456;42.680;23.260;2022-12-16T03:34:42;40.90;;;27.43;;
12784;SDS011;6456;42.680;23.260;2022-12-16T03:37:13;48.63;;;28.73;;
12784;SDS011;6456;42.680;23.260;2022-12-16T03:39:40;39.60;;;28.00;;
12784;SDS011;6456;42.680;23.260;2022-12-16T03:42:11;44.27;;;27.83;;
12784;SDS011;6456;42.680;23.260;2022-12-16T03:44:40;39.20;;;24.83;;
12784;SDS011;6456;42.680;23.260;2022-12-16T03:47:10;35.80;;;23.57;;
12784;SDS011;6456;42.680;23.260;2022-12-16T03:49:37;32.33;;;22.93;;
12784;SDS011;6456;42.680;23.260;2022-12-16T03:52:07;36.10;;;25.20;;
12784;SDS011;6456;42.680;23.260;2022-12-16T03:54:34;40.07;;;25.77;;
12784;SDS011;6456;42.680;23.260;2022-12-16T03:57:01;41.83;;;26.83;;
12784;SDS011;6456;42.680;23.260;2022-12-16T03:59:28;39.43;;;25.80;;
12784;SDS011;6456;42.680;23.260;2022-12-16T04:01:55;34.30;;;24.23;;
12784;SDS011;6456;42.680;23.260;2022-12-16T04:04:23;32.93;;;22.83;;
12784;SDS011;6456;42.680;23.260;2022-12-16T04:06:50;32.17;;;21.20;;
12784;SDS011;6456;42.680;23.260;2022-12-16T04:09:31;31.30;;;22.77;;
12784;SDS011;6456;42.680;23.260;2022-12-16T04:11:58;28.73;;;21.60;;
12784;SDS011;6456;42.680;23.260;2022-12-16T04:14:42;35.50;;;24.37;;
12784;SDS011;6456;42.680;23.260;2022-12-16T04:17:27;40.90;;;26.33;;
12784;SDS011;6456;42.680;23.260;2022-12-16T04:20:13;47.73;;;29.17;;
12784;SDS011;6456;42.680;23.260;2022-12-16T04:22:59;49.87;;;31.10;;
12784;SDS011;6456;42.680;23.260;2022-12-16T04:25:44;54.93;;;34.03;;
12784;SDS011;6456;42.680;23.260;2022-12-16T04:28:11;52.13;;;32.80;;
12784;SDS011;6456;42.680;23.260;2022-12-16T04:30:38;42.57;;;28.73;;
12784;SDS011;6456;42.680;23.260;2022-12-16T04:33:06;43.20;;;27.97;;
12784;SDS011;6456;42.680;23.260;2022-12-16T04:35:54;42.87;;;28.00;;
12784;SDS011;6456;42.680;23.260;2022-12-16T04:38:38;38.47;;;25.57;;
12784;SDS011;6456;42.680;23.260;2022-12-16T04:41:23;37.27;;;26.27;;
12784;SDS011;6456;42.680;23.260;2022-12-16T04:44:07;38.70;;;26.07;;
12784;SDS011;6456;42.680;23.260;2022-12-16T04:46:51;34.57;;;25.47;;
12784;SDS011;6456;42.680;23.260;2022-12-16T04:49:35;35.43;;;24.97;;
12784;SDS011;6456;42.680;23.260;2022-12-16T04:52:21;38.80;;;25.87;;
12784;SDS011;6456;42.680;23.260;2022-12-16T04:55:06;36.27;;;25.20;;
12784;SDS011;6456;42.680;23.260;2022-12-16T04:57:51;39.27;;;25.83;;
12784;SDS011;6456;42.680;23.260;2022-12-16T05:00:36;38.83;;;25.60;;
12784;SDS011;6456;42.680;23.260;2022-12-16T05:03:18;35.60;;;25.40;;
12784;SDS011;6456;42.680;23.260;2022-12-16T05:06:02;37.43;;;26.33;;
12784;SDS011;6456;42.680;23.260;2022-12-16T05:08:47;50.50;;;29.57;;
12784;SDS011;6456;42.680;23.260;2022-12-16T05:11:31;55.50;;;34.87;;
12784;SDS011;6456;42.680;23.260;2022-12-16T05:14:16;57.30;;;31.30;;
12784;SDS011;6456;42.680;23.260;2022-12-16T05:17:00;62.33;;;31.67;;
12784;SDS011;6456;42.680;23.260;2022-12-16T05:19:45;55.50;;;30.90;;
12784;SDS011;6456;42.680;23.260;2022-12-16T05:22:29;53.50;;;31.07;;
12784;SDS011;6456;42.680;23.260;2022-12-16T05:25:15;51.40;;;29.40;;
12784;SDS011;6456;42.680;23.260;2022-12-16T05:27:59;51.13;;;27.27;;
12784;SDS011;6456;42.680;23.260;2022-12-16T05:30:43;72.77;;;31.57;;
12784;SDS011;6456;42.680;23.260;2022-12-16T05:33:28;153.57;;;36.60;;
12784;SDS011;6456;42.680;23.260;2022-12-16T05:36:12;49.17;;;28.37;;
12784;SDS011;6456;42.680;23.260;2022-12-16T05:39:04;46.83;;;27.83;;
12784;SDS011;6456;42.680;23.260;2022-12-16T05:41:50;50.47;;;28.73;;
12784;SDS011;6456;42.680;23.260;2022-12-16T05:44:34;54.17;;;28.53;;
12784;SDS011;6456;42.680;23.260;2022-12-16T05:47:19;65.50;;;29.53;;
12784;SDS011;6456;42.680;23.260;2022-12-16T05:50:03;57.70;;;28.93;;
12784;SDS011;6456;42.680;23.260;2022-12-16T05:52:48;48.23;;;28.23;;
12784;SDS011;6456;42.680;23.260;2022-12-16T05:55:32;61.07;;;29.17;;
12784;SDS011;6456;42.680;23.260;2022-12-16T05:58:18;53.47;;;30.37;;
12784;SDS011;6456;42.680;23.260;2022-12-16T06:01:02;56.20;;;30.20;;
12784;SDS011;6456;42.680;23.260;2022-12-16T06:03:46;62.93;;;30.53;;
12784;SDS011;6456;42.680;23.260;2022-12-16T06:06:31;63.80;;;30.53;;
12784;SDS011;6456;42.680;23.260;2022-12-16T06:09:15;69.30;;;31.63;;
12784;SDS011;6456;42.680;23.260;2022-12-16T06:12:00;63.63;;;30.33;;
12784;SDS011;6456;42.680;23.260;2022-12-16T06:14:45;60.10;;;31.03;;
12784;SDS011;6456;42.680;23.260;2022-12-16T06:17:30;51.57;;;29.87;;
12784;SDS011;6456;42.680;23.260;2022-12-16T06:20:14;52.53;;;29.47;;
12784;SDS011;6456;42.680;23.260;2022-12-16T06:22:59;46.43;;;28.23;;
12784;SDS011;6456;42.680;23.260;2022-12-16T06:25:43;46.07;;;28.13;;
12784;SDS011;6456;42.680;23.260;2022-12-16T06:28:30;48.47;;;30.27;;
12784;SDS011;6456;42.680;23.260;2022-12-16T06:31:17;42.67;;;27.27;;
12784;SDS011;6456;42.680;23.260;2022-12-16T06:34:02;42.63;;;27.30;;
12784;SDS011;6456;42.680;23.260;2022-12-16T06:36:46;43.83;;;28.53;;
12784;SDS011;6456;42.680;23.260;2022-12-16T06:39:30;44.63;;;29.03;;
12784;SDS011;6456;42.680;23.260;2022-12-16T06:42:14;45.63;;;27.87;;
12784;SDS011;6456;42.680;23.260;2022-12-16T06:44:58;48.93;;;29.77;;
12784;SDS011;6456;42.680;23.260;2022-12-16T06:47:44;44.80;;;28.70;;
12784;SDS011;6456;42.680;23.260;2022-12-16T06:50:28;43.40;;;28.93;;
12784;SDS011;6456;42.680;23.260;2022-12-16T06:53:13;46.37;;;29.33;;
12784;SDS011;6456;42.680;23.260;2022-12-16T06:55:57;45.63;;;27.70;;
12784;SDS011;6456;42.680;23.260;2022-12-16T06:58:42;47.03;;;28.67;;
12784;SDS011;6456;42.680;23.260;2022-12-16T07:01:26;40.53;;;27.43;;
12784;SDS011;6456;42.680;23.260;2022-12-16T07:04:11;43.20;;;28.83;;
12784;SDS011;6456;42.680;23.260;2022-12-16T07:06:55;42.83;;;29.10;;
12784;SDS011;6456;42.680;23.260;2022-12-16T07:09:40;47.23;;;27.87;;
12784;SDS011;6456;42.680;23.260;2022-12-16T07:12:24;48.07;;;26.43;;
12784;SDS011;6456;42.680;23.260;2022-12-16T07:15:09;45.80;;;25.57;;
12784;SDS011;6456;42.680;23.260;2022-12-16T07:17:54;51.83;;;24.80;;
12784;SDS011;6456;42.680;23.260;2022-12-16T07:20:40;57.03;;;25.67;;
12784;SDS011;6456;42.680;23.260;2022-12-16T07:23:24;68.37;;;25.20;;
12784;SDS011;6456;42.680;23.260;2022-12-16T07:26:08;63.37;;;26.13;;
12784;SDS011;6456;42.680;23.260;2022-12-16T07:28:53;72.90;;;26.17;;
12784;SDS011;6456;42.680;23.260;2022-12-16T07:31:37;51.70;;;25.23;;
12784;SDS011;6456;42.680;23.260;2022-12-16T07:34:21;53.80;;;23.83;;
12784;SDS011;6456;42.680;23.260;2022-12-16T07:37:07;54.00;;;25.87;;
12784;SDS011;6456;42.680;23.260;2022-12-16T07:39:51;57.60;;;26.77;;
12784;SDS011;6456;42.680;23.260;2022-12-16T07:42:36;49.40;;;25.30;;
12784;SDS011;6456;42.680;23.260;2022-12-16T07:45:23;58.50;;;24.07;;
12784;SDS011;6456;42.680;23.260;2022-12-16T07:48:07;49.43;;;25.43;;
12784;SDS011;6456;42.680;23.260;2022-12-16T07:50:52;46.90;;;24.00;;
12784;SDS011;6456;42.680;23.260;2022-12-16T07:56:25;56.27;;;23.17;;
12784;SDS011;6456;42.680;23.260;2022-12-16T07:59:09;50.10;;;24.30;;
12784;SDS011;6456;42.680;23.260;2022-12-16T08:01:53;54.20;;;23.93;;
12784;SDS011;6456;42.680;23.260;2022-12-16T08:04:37;104.87;;;25.70;;
12784;SDS011;6456;42.680;23.260;2022-12-16T08:07:22;46.03;;;23.53;;
12784;SDS011;6456;42.680;23.260;2022-12-16T08:10:08;42.93;;;23.70;;
12784;SDS011;6456;42.680;23.260;2022-12-16T08:12:57;41.50;;;23.30;;
12784;SDS011;6456;42.680;23.260;2022-12-16T08:15:42;52.33;;;23.87;;
12784;SDS011;6456;42.680;23.260;2022-12-16T08:18:26;41.07;;;23.73;;
12784;SDS011;6456;42.680;23.260;2022-12-16T08:21:10;37.67;;;21.63;;
12784;SDS011;6456;42.680;23.260;2022-12-16T08:23:54;39.07;;;21.70;;
12784;SDS011;6456;42.680;23.260;2022-12-16T08:26:40;41.23;;;22.13;;
12784;SDS011;6456;42.680;23.260;2022-12-16T08:29:24;35.47;;;22.27;;
12784;SDS011;6456;42.680;23.260;2022-12-16T08:32:08;38.23;;;23.03;;
12784;SDS011;6456;42.680;23.260;2022-12-16T08:34:52;39.97;;;21.97;;
12784;SDS011;6456;42.680;23.260;2022-12-16T08:37:36;38.77;;;23.47;;
12784;SDS011;6456;42.680;23.260;2022-12-16T08:40:21;40.80;;;22.33;;
12784;SDS011;6456;42.680;23.260;2022-12-16T08:43:06;38.80;;;23.00;;
12784;SDS011;6456;42.680;23.260;2022-12-16T08:45:50;48.47;;;22.77;;
12784;SDS011;6456;42.680;23.260;2022-12-16T08:48:36;34.93;;;21.10;;
12784;SDS011;6456;42.680;23.260;2022-12-16T08:51:20;36.13;;;21.33;;
12784;SDS011;6456;42.680;23.260;2022-12-16T08:54:05;33.73;;;20.57;;
12784;SDS011;6456;42.680;23.260;2022-12-16T08:57:01;35.50;;;21.27;;
12784;SDS011;6456;42.680;23.260;2022-12-16T08:59:46;37.33;;;20.90;;
12784;SDS011;6456;42.680;23.260;2022-12-16T09:02:30;33.90;;;22.43;;
12784;SDS011;6456;42.680;23.260;2022-12-16T09:05:14;36.33;;;21.73;;
12784;SDS011;6456;42.680;23.260;2022-12-16T09:07:59;37.50;;;22.33;;
12784;SDS011;6456;42.680;23.260;2022-12-16T09:10:44;36.47;;;21.80;;
12784;SDS011;6456;42.680;23.260;2022-12-16T09:13:28;36.53;;;22.90;;
12784;SDS011;6456;42.680;23.260;2022-12-16T09:16:14;37.30;;;22.33;;
12784;SDS011;6456;42.680;23.260;2022-12-16T09:18:59;41.93;;;23.77;;
12784;SDS011;6456;42.680;23.260;2022-12-16T09:21:39;43.47;;;24.70;;
12784;SDS011;6456;42.680;23.260;2022-12-16T09:24:24;38.67;;;23.43;;
12784;SDS011;6456;42.680;23.260;2022-12-16T09:27:08;41.07;;;24.43;;
12784;SDS011;6456;42.680;23.260;2022-12-16T09:29:52;43.00;;;24.23;;
12784;SDS011;6456;42.680;23.260;2022-12-16T09:32:40;36.30;;;22.40;;
12784;SDS011;6456;42.680;23.260;2022-12-16T09:35:25;41.17;;;23.57;;
12784;SDS011;6456;42.680;23.260;2022-12-16T09:38:09;39.90;;;23.57;;
12784;SDS011;6456;42.680;23.260;2022-12-16T09:40:53;39.17;;;23.17;;
12784;SDS011;6456;42.680;23.260;2022-12-16T09:43:41;35.07;;;21.60;;
12784;SDS011;6456;42.680;23.260;2022-12-16T09:46:38;36.60;;;23.67;;
12784;SDS011;6456;42.680;23.260;2022-12-16T09:49:36;38.30;;;23.37;;
12784;SDS011;6456;42.680;23.260;2022-12-16T09:52:25;32.50;;;21.00;;
12784;SDS011;6456;42.680;23.260;2022-12-16T09:55:16;30.87;;;20.67;;
12784;SDS011;6456;42.680;23.260;2022-12-16T09:58:07;33.00;;;21.40;;
12784;SDS011;6456;42.680;23.260;2022-12-16T10:00:55;38.27;;;23.40;;
12784;SDS011;6456;42.680;23.260;2022-12-16T10:03:40;36.20;;;22.70;;
12784;SDS011;6456;42.680;23.260;2022-12-16T10:06:29;40.30;;;25.90;;
12784;SDS011;6456;42.680;23.260;2022-12-16T10:09:23;39.33;;;24.33;;
12784;SDS011;6456;42.680;23.260;2022-12-16T10:12:13;39.83;;;25.17;;
12784;SDS011;6456;42.680;23.260;2022-12-16T10:15:11;37.27;;;25.17;;
12784;SDS011;6456;42.680;23.260;2022-12-16T10:18:09;37.97;;;25.40;;
12784;SDS011;6456;42.680;23.260;2022-12-16T10:21:04;38.93;;;25.20;;
12784;SDS011;6456;42.680;23.260;2022-12-16T10:23:56;41.53;;;26.07;;
12784;SDS011;6456;42.680;23.260;2022-12-16T10:26:49;40.47;;;29.13;;
12784;SDS011;6456;42.680;23.260;2022-12-16T10:29:36;45.17;;;31.83;;
12784;SDS011;6456;42.680;23.260;2022-12-16T10:32:26;43.07;;;31.67;;
12784;SDS011;6456;42.680;23.260;2022-12-16T10:35:26;46.10;;;33.37;;
12784;SDS011;6456;42.680;23.260;2022-12-16T10:38:14;46.70;;;34.03;;
12784;SDS011;6456;42.680;23.260;2022-12-16T10:41:05;46.13;;;33.37;;
12784;SDS011;6456;42.680;23.260;2022-12-16T10:43:52;54.60;;;34.33;;
12784;SDS011;6456;42.680;23.260;2022-12-16T10:46:38;53.27;;;39.43;;
12784;SDS011;6456;42.680;23.260;2022-12-16T10:49:22;56.00;;;39.37;;
12784;SDS011;6456;42.680;23.260;2022-12-16T10:52:08;57.03;;;42.77;;
12784;SDS011;6456;42.680;23.260;2022-12-16T10:54:56;54.73;;;37.70;;
12784;SDS011;6456;42.680;23.260;2022-12-16T10:57:50;52.00;;;39.00;;
12784;SDS011;6456;42.680;23.260;2022-12-16T11:00:42;50.87;;;37.77;;
12784;SDS011;6456;42.680;23.260;2022-12-16T11:03:28;48.07;;;36.40;;
12784;SDS011;6456;42.680;23.260;2022-12-16T11:06:15;52.13;;;37.83;;
12784;SDS011;6456;42.680;23.260;2022-12-16T11:09:19;48.27;;;35.53;;
12784;SDS011;6456;42.680;23.260;2022-12-16T11:12:14;42.93;;;31.57;;
12784;SDS011;6456;42.680;23.260;2022-12-16T11:18:15;44.80;;;33.23;;
12784;SDS011;6456;42.680;23.260;2022-12-16T11:21:10;48.70;;;33.30;;
12784;SDS011;6456;42.680;23.260;2022-12-16T11:24:06;43.10;;;32.67;;
12784;SDS011;6456;42.680;23.260;2022-12-16T11:26:55;44.97;;;32.57;;
12784;SDS011;6456;42.680;23.260;2022-12-16T11:29:48;44.73;;;32.73;;
12784;SDS011;6456;42.680;23.260;2022-12-16T11:32:35;47.23;;;34.27;;
12784;SDS011;6456;42.680;23.260;2022-12-16T11:35:22;41.30;;;31.30;;
12784;SDS011;6456;42.680;23.260;2022-12-16T11:38:11;41.63;;;30.57;;
12784;SDS011;6456;42.680;23.260;2022-12-16T11:41:07;44.00;;;32.17;;
12784;SDS011;6456;42.680;23.260;2022-12-16T11:43:57;42.50;;;31.60;;
12784;SDS011;6456;42.680;23.260;2022-12-16T11:46:43;48.63;;;34.33;;
12784;SDS011;6456;42.680;23.260;2022-12-16T11:49:29;41.43;;;31.70;;
12784;SDS011;6456;42.680;23.260;2022-12-16T11:52:15;41.90;;;31.77;;
12784;SDS011;6456;42.680;23.260;2022-12-16T11:55:03;44.37;;;33.90;;
12784;SDS011;6456;42.680;23.260;2022-12-16T11:57:58;47.13;;;35.33;;
12784;SDS011;6456;42.680;23.260;2022-12-16T12:00:51;48.30;;;36.00;;
12784;SDS011;6456;42.680;23.260;2022-12-16T12:03:41;46.43;;;35.57;;
12784;SDS011;6456;42.680;23.260;2022-12-16T12:06:30;48.33;;;36.60;;
12784;SDS011;6456;42.680;23.260;2022-12-16T12:09:22;44.90;;;35.60;;
12784;SDS011;6456;42.680;23.260;2022-12-16T12:12:11;50.80;;;36.23;;
12784;SDS011;6456;42.680;23.260;2022-12-16T12:15:05;48.33;;;35.23;;
12784;SDS011;6456;42.680;23.260;2022-12-16T12:18:01;45.27;;;34.90;;
12784;SDS011;6456;42.680;23.260;2022-12-16T12:20:52;46.07;;;34.73;;
12784;SDS011;6456;42.680;23.260;2022-12-16T12:23:48;45.07;;;31.60;;
12784;SDS011;6456;42.680;23.260;2022-12-16T12:26:42;41.20;;;31.63;;
12784;SDS011;6456;42.680;23.260;2022-12-16T12:29:32;41.70;;;30.90;;
12784;SDS011;6456;42.680;23.260;2022-12-16T12:32:34;40.50;;;32.03;;
12784;SDS011;6456;42.680;23.260;2022-12-16T12:35:31;42.80;;;30.33;;
12784;SDS011;6456;42.680;23.260;2022-12-16T12:38:43;41.40;;;30.83;;
12784;SDS011;6456;42.680;23.260;2022-12-16T12:41:46;37.07;;;30.23;;
12784;SDS011;6456;42.680;23.260;2022-12-16T12:44:46;39.47;;;31.33;;
12784;SDS011;6456;42.680;23.260;2022-12-16T12:47:45;40.30;;;30.80;;
12784;SDS011;6456;42.680;23.260;2022-12-16T12:50:37;40.03;;;30.93;;
12784;SDS011;6456;42.680;23.260;2022-12-16T12:53:28;42.73;;;30.87;;
12784;SDS011;6456;42.680;23.260;2022-12-16T12:56:24;40.10;;;30.87;;
12784;SDS011;6456;42.680;23.260;2022-12-16T12:59:18;42.57;;;32.00;;
12784;SDS011;6456;42.680;23.260;2022-12-16T13:02:09;46.97;;;31.70;;
12784;SDS011;6456;42.680;23.260;2022-12-16T13:05:01;38.93;;;30.60;;
12784;SDS011;6456;42.680;23.260;2022-12-16T13:07:46;39.37;;;30.53;;
12784;SDS011;6456;42.680;23.260;2022-12-16T13:10:32;40.17;;;31.90;;
12784;SDS011;6456;42.680;23.260;2022-12-16T13:13:29;47.20;;;32.67;;
12784;SDS011;6456;42.680;23.260;2022-12-16T13:19:52;38.53;;;29.13;;
12784;SDS011;6456;42.680;23.260;2022-12-16T13:22:40;39.93;;;30.40;;
12784;SDS011;6456;42.680;23.260;2022-12-16T13:25:31;41.60;;;29.93;;
12784;SDS011;6456;42.680;23.260;2022-12-16T13:28:21;42.20;;;29.90;;
12784;SDS011;6456;42.680;23.260;2022-12-16T13:31:12;42.47;;;32.67;;
12784;SDS011;6456;42.680;23.260;2022-12-16T13:33:59;42.13;;;31.70;;
12784;SDS011;6456;42.680;23.260;2022-12-16T13:36:51;41.00;;;32.43;;
12784;SDS011;6456;42.680;23.260;2022-12-16T13:39:37;46.00;;;33.43;;
12784;SDS011;6456;42.680;23.260;2022-12-16T13:42:46;49.17;;;34.23;;
12784;SDS011;6456;42.680;23.260;2022-12-16T13:45:34;50.00;;;38.40;;
12784;SDS011;6456;42.680;23.260;2022-12-16T13:48:29;47.17;;;33.80;;
12784;SDS011;6456;42.680;23.260;2022-12-16T13:54:51;46.13;;;34.17;;
12784;SDS011;6456;42.680;23.260;2022-12-16T13:57:57;45.67;;;33.50;;
12784;SDS011;6456;42.680;23.260;2022-12-16T14:00:53;44.43;;;33.53;;
12784;SDS011;6456;42.680;23.260;2022-12-16T14:03:42;47.27;;;35.37;;
12784;SDS011;6456;42.680;23.260;2022-12-16T14:06:30;44.03;;;32.43;;
12784;SDS011;6456;42.680;23.260;2022-12-16T14:09:27;46.37;;;30.57;;
12784;SDS011;6456;42.680;23.260;2022-12-16T14:12:18;39.57;;;28.40;;
12784;SDS011;6456;42.680;23.260;2022-12-16T14:15:24;38.10;;;27.07;;
12784;SDS011;6456;42.680;23.260;2022-12-16T14:18:15;42.53;;;28.53;;
12784;SDS011;6456;42.680;23.260;2022-12-16T14:21:12;40.60;;;28.80;;
12784;SDS011;6456;42.680;23.260;2022-12-16T14:24:03;35.37;;;27.00;;
12784;SDS011;6456;42.680;23.260;2022-12-16T14:26:54;38.77;;;28.97;;
12784;SDS011;6456;42.680;23.260;2022-12-16T14:29:38;39.10;;;29.13;;
12784;SDS011;6456;42.680;23.260;2022-12-16T14:32:26;41.90;;;29.37;;
12784;SDS011;6456;42.680;23.260;2022-12-16T14:35:13;39.70;;;29.43;;
12784;SDS011;6456;42.680;23.260;2022-12-16T14:38:13;39.03;;;28.33;;
12784;SDS011;6456;42.680;23.260;2022-12-16T14:41:05;39.67;;;29.20;;
12784;SDS011;6456;42.680;23.260;2022-12-16T14:43:54;46.27;;;36.03;;
12784;SDS011;6456;42.680;23.260;2022-12-16T14:46:38;44.33;;;31.60;;
12784;SDS011;6456;42.680;23.260;2022-12-16T14:49:31;39.47;;;31.50;;
12784;SDS011;6456;42.680;23.260;2022-12-16T14:52:17;46.57;;;34.83;;
12784;SDS011;6456;42.680;23.260;2022-12-16T14:55:11;43.33;;;31.47;;
12784;SDS011;6456;42.680;23.260;2022-12-16T14:58:02;42.03;;;32.50;;
12784;SDS011;6456;42.680;23.260;2022-12-16T15:00:52;46.70;;;32.47;;
12784;SDS011;6456;42.680;23.260;2022-12-16T15:03:40;44.50;;;33.67;;
12784;SDS011;6456;42.680;23.260;2022-12-16T15:06:27;49.07;;;34.50;;
12784;SDS011;6456;42.680;23.260;2022-12-16T15:09:19;43.37;;;33.60;;
12784;SDS011;6456;42.680;23.260;2022-12-16T15:12:09;46.50;;;34.93;;
12784;SDS011;6456;42.680;23.260;2022-12-16T15:14:55;51.63;;;35.87;;
12784;SDS011;6456;42.680;23.260;2022-12-16T15:17:42;44.47;;;34.33;;
12784;SDS011;6456;42.680;23.260;2022-12-16T15:20:30;45.93;;;32.80;;
12784;SDS011;6456;42.680;23.260;2022-12-16T15:23:18;44.77;;;34.37;;
12784;SDS011;6456;42.680;23.260;2022-12-16T15:26:05;45.07;;;31.03;;
12784;SDS011;6456;42.680;23.260;2022-12-16T15:28:52;47.73;;;31.80;;
12784;SDS011;6456;42.680;23.260;2022-12-16T15:31:37;36.67;;;27.63;;
12784;SDS011;6456;42.680;23.260;2022-12-16T15:34:23;34.63;;;24.23;;
12784;SDS011;6456;42.680;23.260;2022-12-16T15:37:17;39.50;;;25.63;;
12784;SDS011;6456;42.680;23.260;2022-12-16T15:40:04;37.30;;;25.50;;
12784;SDS011;6456;42.680;23.260;2022-12-16T15:43:18;35.03;;;27.27;;
12784;SDS011;6456;42.680;23.260;2022-12-16T15:46:05;35.20;;;25.43;;
12784;SDS011;6456;42.680;23.260;2022-12-16T15:48:59;37.83;;;26.93;;
12784;SDS011;6456;42.680;23.260;2022-12-16T15:51:44;46.77;;;29.33;;
12784;SDS011;6456;42.680;23.260;2022-12-16T15:54:30;39.13;;;27.30;;
12784;SDS011;6456;42.680;23.260;2022-12-16T15:57:30;41.97;;;27.67;;
12784;SDS011;6456;42.680;23.260;2022-12-16T16:00:17;33.03;;;25.20;;
12784;SDS011;6456;42.680;23.260;2022-12-16T16:03:13;34.90;;;25.80;;
12784;SDS011;6456;42.680;23.260;2022-12-16T16:06:15;34.77;;;25.47;;